Time;durP1;ratioP1;P1;durP2;ratioP2;P2;SDS_P1;SDS_P2;PMS_P1;PMS_P2;Temp;Humidity;BMP_temperature;BMP_pressure;BME280_temperature;BME280_humidity;BME280_pressure;Samples;Min_cycle;Max_cycle;Signal;HPM_P1;HPM_P2
2022/11/03 00:02:56;;;;;;;3.08;1.25;;;17.70;54.80;;;;;;20604910;28;20045;-75
2022/11/03 00:12:58;;;;;;;1.65;1.10;;;17.60;54.70;;;;;;20603848;28;20038;-74
2022/11/03 00:23:02;;;;;;;2.55;1.17;;;17.70;54.70;;;;;;20597350;28;20372;-74
2022/11/03 00:33:02;;;;;;;2.15;1.05;;;17.60;54.70;;;;;;20625168;28;20085;-74
2022/11/03 00:43:04;;;;;;;2.75;1.27;;;17.60;54.70;;;;;;20621705;28;20041;-74
2022/11/03 00:53:05;;;;;;;3.05;0.88;;;17.60;54.70;;;;;;20627970;28;20042;-74
2022/11/03 01:03:06;;;;;;;2.33;1.10;;;17.50;54.50;;;;;;20588740;28;20710;-74
2022/11/03 01:13:06;;;;;;;2.50;1.30;;;17.50;54.50;;;;;;20604005;28;20038;-75
2022/11/03 01:23:07;;;;;;;3.28;1.27;;;17.50;54.40;;;;;;20585094;28;20264;-75
2022/11/03 01:33:08;;;;;;;2.28;1.20;;;17.40;54.40;;;;;;20578525;28;20073;-75
2022/11/03 01:43:22;;;;;;;3.05;1.00;;;17.50;54.40;;;;;;20628567;28;20026;-74
2022/11/03 01:53:22;;;;;;;3.33;1.10;;;17.40;54.40;;;;;;20624008;28;20046;-74
2022/11/03 02:03:25;;;;;;;3.97;1.30;;;17.40;54.40;;;;;;20617318;28;20034;-75
2022/11/03 02:13:26;;;;;;;2.70;0.80;;;17.30;54.40;;;;;;20892512;23;20130;-71
2022/11/03 02:23:45;;;;;;;2.72;1.50;;;17.40;54.60;;;;;;20523109;28;20034;-71
2022/11/03 02:34:01;;;;;;;2.38;0.88;;;17.30;54.70;;;;;;20539280;28;20469;-70
2022/11/03 02:44:03;;;;;;;1.35;0.70;;;17.30;54.70;;;;;;20575977;28;20027;-71
2022/11/03 02:54:24;;;;;;;2.60;1.27;;;17.30;54.80;;;;;;20538566;28;20470;-71
2022/11/03 03:04:30;;;;;;;1.75;0.98;;;17.30;54.90;;;;;;20522141;28;20069;-71
2022/11/03 03:14:33;;;;;;;1.23;0.73;;;17.30;55.00;;;;;;20531091;28;20081;-70
2022/11/03 03:24:47;;;;;;;2.97;0.80;;;17.20;54.90;;;;;;20520490;28;20031;-70
2022/11/03 03:34:47;;;;;;;2.20;0.93;;;17.20;55.00;;;;;;20547520;28;20043;-70
2022/11/03 03:44:48;;;;;;;3.67;0.88;;;17.20;55.00;;;;;;20542884;28;20493;-71
2022/11/03 03:54:49;;;;;;;2.42;0.70;;;17.20;55.10;;;;;;20523888;28;20089;-70
2022/11/03 04:04:49;;;;;;;1.92;0.70;;;17.20;55.20;;;;;;20529017;28;20027;-71
2022/11/03 04:25:09;;;;;;;2.92;0.68;;;17.20;55.30;;;;;;20539987;28;20292;-71
2022/11/03 04:35:15;;;;;;;1.55;0.70;;;17.10;55.40;;;;;;20505694;28;20125;-71
2022/11/03 04:45:25;;;;;;;3.63;0.98;;;17.10;55.40;;;;;;20516119;28;20035;-71
2022/11/03 04:55:25;;;;;;;2.17;0.80;;;17.10;55.50;;;;;;20534292;28;20071;-70
2022/11/03 05:05:26;;;;;;;0.98;0.50;;;17.00;55.50;;;;;;20529074;28;20172;-71
2022/11/03 05:15:36;;;;;;;1.33;0.60;;;17.10;55.60;;;;;;20532731;28;20078;-73
2022/11/03 05:25:41;;;;;;;1.95;0.88;;;17.10;55.60;;;;;;20527957;28;20039;-71
2022/11/03 05:35:42;;;;;;;1.80;0.90;;;17.00;55.60;;;;;;20547816;28;20039;-72
2022/11/03 05:45:42;;;;;;;1.15;0.52;;;17.00;55.70;;;;;;20559726;28;20034;-72
2022/11/03 05:55:43;;;;;;;1.65;1.05;;;17.00;55.80;;;;;;20566906;28;20034;-73
2022/11/03 06:05:43;;;;;;;3.53;0.65;;;17.00;55.90;;;;;;20527922;28;20122;-70
2022/11/03 06:15:45;;;;;;;2.13;1.10;;;17.00;56.00;;;;;;20541033;28;20049;-73
2022/11/03 06:25:46;;;;;;;2.97;0.68;;;16.90;56.00;;;;;;20497683;28;20286;-75
2022/11/03 06:35:48;;;;;;;2.80;0.80;;;16.90;56.10;;;;;;20539218;28;20421;-76
2022/11/03 06:45:53;;;;;;;2.85;0.75;;;16.90;56.20;;;;;;20524367;28;20027;-77
2022/11/03 06:55:54;;;;;;;7.10;1.33;;;16.80;56.10;;;;;;20535562;28;20045;-75
2022/11/03 07:05:59;;;;;;;1.92;0.75;;;16.80;56.20;;;;;;20554123;28;20474;-77
2022/11/03 07:16:00;;;;;;;0.63;0.53;;;16.80;56.30;;;;;;20537000;28;20039;-76
2022/11/03 07:26:00;;;;;;;4.17;0.80;;;16.80;56.30;;;;;;20540746;28;20034;-77
2022/11/03 07:36:02;;;;;;;4.05;0.93;;;16.80;56.40;;;;;;20523925;28;21335;-77
2022/11/03 07:46:03;;;;;;;0.82;0.52;;;16.80;56.40;;;;;;20539361;28;20081;-76
2022/11/03 07:56:23;;;;;;;6.47;0.85;;;16.80;56.50;;;;;;20526970;28;20434;-76
2022/11/03 08:06:24;;;;;;;2.63;0.57;;;16.80;56.60;;;;;;20527573;28;20038;-75
2022/11/03 08:16:25;;;;;;;0.80;0.50;;;16.80;56.70;;;;;;20527344;28;20385;-76
2022/11/03 08:26:25;;;;;;;1.15;0.38;;;16.70;56.80;;;;;;20526943;28;20504;-76
2022/11/03 08:36:26;;;;;;;1.52;0.60;;;16.80;57.00;;;;;;20557807;28;20057;-76
2022/11/03 08:46:27;;;;;;;2.45;0.60;;;16.70;57.00;;;;;;20543791;28;20057;-76
2022/11/03 08:56:29;;;;;;;2.00;0.70;;;16.70;57.10;;;;;;20569605;28;20382;-75
2022/11/03 09:06:29;;;;;;;3.53;0.68;;;16.70;57.30;;;;;;20570388;28;20062;-76
2022/11/03 09:16:30;;;;;;;2.33;0.80;;;16.60;57.40;;;;;;20560537;28;20046;-75
2022/11/03 09:26:30;;;;;;;2.00;0.60;;;16.60;57.60;;;;;;20530964;28;20031;-76
2022/11/03 09:36:31;;;;;;;1.20;0.50;;;16.60;57.60;;;;;;20567341;28;20138;-76
2022/11/03 09:46:34;;;;;;;2.10;0.40;;;16.60;57.60;;;;;;20550310;28;20058;-76
2022/11/03 09:56:35;;;;;;;1.27;0.50;;;16.60;57.70;;;;;;20533468;28;20477;-76
2022/11/03 10:06:35;;;;;;;5.05;0.40;;;16.60;57.80;;;;;;20527928;28;20046;-76
2022/11/03 10:16:36;;;;;;;1.35;0.50;;;16.60;57.80;;;;;;20551849;28;20440;-75
2022/11/03 10:26:47;;;;;;;1.80;0.50;;;16.70;57.80;;;;;;20528002;28;20110;-76
2022/11/03 10:36:48;;;;;;;4.88;0.68;;;16.70;57.70;;;;;;20545795;28;20286;-76
2022/11/03 10:46:59;;;;;;;2.05;0.38;;;16.70;57.70;;;;;;20523982;28;20119;-79
2022/11/03 10:56:59;;;;;;;0.55;0.40;;;16.80;57.60;;;;;;20544240;28;20038;-79
2022/11/03 11:07:00;;;;;;;0.95;0.38;;;17.00;57.50;;;;;;20543124;28;20045;-79
2022/11/03 11:17:01;;;;;;;1.00;0.50;;;17.20;56.90;;;;;;20525850;28;20037;-79
2022/11/03 11:27:01;;;;;;;2.37;0.83;;;17.40;56.40;;;;;;20552986;28;20124;-79
2022/11/03 11:37:02;;;;;;;6.20;1.00;;;17.60;56.00;;;;;;20534427;28;20357;-74
2022/11/03 11:47:03;;;;;;;2.70;1.10;;;17.80;55.70;;;;;;20577164;28;20026;-75
2022/11/03 11:57:17;;;;;;;3.00;0.80;;;17.90;55.40;;;;;;20495272;28;20481;-73
2022/11/03 12:07:31;;;;;;;1.33;0.40;;;17.90;55.10;;;;;;20537034;28;20130;-75
2022/11/03 12:17:32;;;;;;;2.22;0.77;;;18.00;55.00;;;;;;20549214;28;20074;-75
2022/11/03 12:27:33;;;;;;;2.78;0.63;;;17.90;54.90;;;;;;20525501;28;20541;-77
2022/11/03 12:37:33;;;;;;;2.22;0.35;;;18.00;54.90;;;;;;20561443;28;20031;-72
2022/11/03 12:47:34;;;;;;;2.58;0.50;;;17.90;54.90;;;;;;20530614;28;20190;-72
2022/11/03 12:57:35;;;;;;;2.37;0.57;;;17.90;55.00;;;;;;20522531;28;20031;-76
2022/11/03 13:07:35;;;;;;;0.90;0.33;;;17.90;55.00;;;;;;20529611;28;20280;-74
2022/11/03 13:17:36;;;;;;;2.13;0.52;;;17.90;55.10;;;;;;20510302;28;20301;-73
2022/11/03 13:27:36;;;;;;;0.50;0.37;;;17.90;55.80;;;;;;20507622;28;20093;-73
2022/11/03 13:37:37;;;;;;;2.00;0.52;;;17.80;55.10;;;;;;20549314;28;20286;-72
2022/11/03 13:47:37;;;;;;;2.20;0.98;;;17.80;55.20;;;;;;20564055;28;20039;-72
2022/11/03 13:57:38;;;;;;;0.68;0.40;;;17.80;55.30;;;;;;20569003;28;20422;-72
2022/11/03 14:07:39;;;;;;;1.00;0.47;;;17.80;55.40;;;;;;20525702;28;20035;-72
2022/11/03 14:17:39;;;;;;;11.38;3.72;;;17.80;55.40;;;;;;20556791;28;20026;-73
2022/11/03 14:27:40;;;;;;;12.30;2.83;;;17.90;55.40;;;;;;20532231;28;20042;-72
2022/11/03 14:37:40;;;;;;;21.38;5.07;;;18.00;55.30;;;;;;20522167;28;20312;-75
2022/11/03 14:47:43;;;;;;;11.00;4.40;;;18.00;55.50;;;;;;20528130;28;20030;-74
2022/11/03 14:57:44;;;;;;;14.18;4.07;;;18.00;55.50;;;;;;20541214;28;20081;-75
2022/11/03 15:07:45;;;;;;;7.97;3.30;;;18.00;55.40;;;;;;20536446;28;20038;-74
2022/11/03 15:17:46;;;;;;;9.63;3.13;;;18.00;55.50;;;;;;20502549;28;20035;-73
2022/11/03 15:27:46;;;;;;;10.57;3.53;;;17.90;55.50;;;;;;20523929;28;20031;-74
2022/11/03 15:37:47;;;;;;;6.22;3.10;;;17.90;56.20;;;;;;20510980;28;20294;-74
2022/11/03 15:47:49;;;;;;;9.25;2.85;;;17.90;55.70;;;;;;20551085;28;20031;-72
2022/11/03 15:57:50;;;;;;;11.82;3.67;;;17.90;55.70;;;;;;20525543;28;20493;-73
2022/11/03 16:07:51;;;;;;;6.03;2.38;;;17.90;55.80;;;;;;20548283;28;20081;-75
2022/11/03 16:17:51;;;;;;;5.73;2.30;;;17.80;55.90;;;;;;20526501;28;20109;-77
2022/11/03 16:27:52;;;;;;;6.05;2.60;;;17.80;55.90;;;;;;20530899;28;20336;-75
2022/11/03 16:37:52;;;;;;;7.50;2.60;;;17.80;56.00;;;;;;20521828;28;20038;-76
2022/11/03 16:47:53;;;;;;;5.13;1.92;;;17.70;56.00;;;;;;20527207;28;20038;-74
2022/11/03 16:57:54;;;;;;;7.05;2.03;;;17.70;56.10;;;;;;20535939;28;20031;-74
2022/11/03 17:07:55;;;;;;;4.97;1.87;;;17.70;56.20;;;;;;20581085;28;20041;-72
2022/11/03 17:17:55;;;;;;;4.88;1.73;;;17.70;56.30;;;;;;20550496;28;20481;-73
2022/11/03 17:27:57;;;;;;;2.80;1.70;;;17.60;56.30;;;;;;20546542;28;20035;-73
2022/11/03 17:37:58;;;;;;;5.30;1.75;;;17.60;56.50;;;;;;20542769;28;20302;-72
2022/11/03 17:47:58;;;;;;;6.90;2.05;;;18.00;55.90;;;;;;20503765;28;20570;-71
2022/11/03 17:58:00;;;;;;;6.28;1.83;;;19.20;53.20;;;;;;20539362;28;20393;-72
2022/11/03 18:08:04;;;;;;;4.80;1.83;;;19.20;52.70;;;;;;20557638;28;20043;-73
2022/11/03 18:18:10;;;;;;;4.03;1.90;;;18.60;53.60;;;;;;20533015;28;20035;-80
2022/11/03 18:28:11;;;;;;;3.70;1.33;;;18.50;54.10;;;;;;20548539;28;20054;-74
2022/11/03 18:38:13;;;;;;;5.05;1.60;;;18.40;54.10;;;;;;20524281;28;20030;-74
2022/11/03 18:48:18;;;;;;;3.75;1.60;;;18.40;54.20;;;;;;20556290;28;20078;-74
2022/11/03 18:58:23;;;;;;;5.30;1.77;;;18.50;54.20;;;;;;20526856;28;20493;-74
2022/11/03 19:08:30;;;;;;;2.87;1.30;;;18.50;54.10;;;;;;20522574;28;20393;-73
2022/11/03 19:18:32;;;;;;;4.60;1.45;;;18.50;54.10;;;;;;20505809;28;20093;-73
2022/11/03 19:28:33;;;;;;;5.47;1.42;;;18.50;54.20;;;;;;20535048;28;20042;-74
2022/11/03 19:38:34;;;;;;;3.10;1.73;;;18.40;54.20;;;;;;20522603;28;20359;-74
2022/11/03 19:48:35;;;;;;;3.78;1.38;;;18.40;54.30;;;;;;20535426;28;20062;-73
2022/11/03 19:58:36;;;;;;;2.72;1.35;;;18.40;54.30;;;;;;20549777;28;20030;-73
2022/11/03 20:08:36;;;;;;;2.22;0.93;;;18.40;54.30;;;;;;20516350;28;20039;-73
2022/11/03 20:18:37;;;;;;;4.43;1.50;;;18.40;55.00;;;;;;20523899;28;20035;-73
2022/11/03 20:28:38;;;;;;;4.65;1.17;;;18.30;54.40;;;;;;20529013;28;20496;-74
2022/11/03 20:38:39;;;;;;;2.67;1.67;;;18.30;54.50;;;;;;20510677;28;20129;-74
2022/11/03 20:48:39;;;;;;;3.53;1.17;;;18.30;54.60;;;;;;20509936;28;20035;-73
2022/11/03 20:58:40;;;;;;;2.38;1.10;;;18.20;54.60;;;;;;20543296;28;20306;-73
2022/11/03 21:08:42;;;;;;;2.92;0.80;;;18.20;54.80;;;;;;20538584;28;20177;-74
2022/11/03 21:29:02;;;;;;;2.28;1.30;;;18.10;55.00;;;;;;20543781;28;20122;-73
2022/11/03 21:39:02;;;;;;;1.47;0.60;;;18.00;55.10;;;;;;20525982;28;20476;-73
2022/11/03 21:59:22;;;;;;;3.13;1.00;;;18.00;56.10;;;;;;20547591;28;20042;-73
2022/11/03 22:09:23;;;;;;;2.22;1.35;;;17.90;55.40;;;;;;20543149;28;20034;-73
2022/11/03 22:50:22;;;;;;;1.92;0.98;;;17.80;55.80;;;;;;20530871;28;20035;-73
2022/11/03 23:00:22;;;;;;;1.65;0.77;;;17.80;56.00;;;;;;20512059;28;20143;-73
2022/11/03 23:10:27;;;;;;;1.63;0.80;;;17.80;56.10;;;;;;20568283;28;20042;-73
2022/11/03 23:30:46;;;;;;;1.98;1.00;;;17.70;56.30;;;;;;20537517;28;20081;-73
2022/11/03 23:40:47;;;;;;;2.35;0.95;;;17.70;56.40;;;;;;20550777;28;20031;-73
2022/11/03 23:50:47;;;;;;;1.58;0.73;;;17.70;56.50;;;;;;20543027;28;20054;-74
